Time;durP1;ratioP1;P1;durP2;ratioP2;P2;SDS_P1;SDS_P2;PMS_P1;PMS_P2;Temp;Humidity;BMP_temperature;BMP_pressure;BME280_temperature;BME280_humidity;BME280_pressure;Samples;Min_cycle;Max_cycle;Signal;HPM_P1;HPM_P2
2022/11/25 00:00:49;;;;;;;28.90;11.20;;;;;;;0.19;100.00;98750.44;5014188;28;20057;-76
2022/11/25 00:03:14;;;;;;;22.27;9.27;;;;;;;0.38;100.00;98778.88;5017792;28;20271;-76
2022/11/25 00:05:39;;;;;;;21.45;8.75;;;;;;;0.32;100.00;98775.94;5014580;28;20037;-76
2022/11/25 00:08:05;;;;;;;23.60;9.95;;;;;;;0.38;100.00;98768.22;5015860;28;20039;-76
2022/11/25 00:10:30;;;;;;;20.90;10.57;;;;;;;0.51;100.00;98775.94;5014071;28;20033;-76
2022/11/25 00:12:56;;;;;;;17.35;10.10;;;;;;;0.48;100.00;98757.59;5015588;28;20053;-76
2022/11/25 00:15:21;;;;;;;22.30;11.13;;;;;;;0.19;100.00;98712.34;5009500;28;20072;-75
2022/11/25 00:17:46;;;;;;;23.67;11.80;;;;;;;0.33;100.00;98751.84;5011174;28;20121;-76
2022/11/25 00:20:12;;;;;;;22.92;10.07;;;;;;;0.25;100.00;98770.31;5014241;28;20491;-76
2022/11/25 00:22:37;;;;;;;24.25;10.02;;;;;;;0.23;100.00;98764.28;5017312;28;20446;-76
2022/11/25 00:25:03;;;;;;;22.73;10.15;;;;;;;0.12;100.00;98767.91;5016447;28;20037;-76
2022/11/25 00:27:28;;;;;;;29.27;11.15;;;;;;;0.00;100.00;98755.75;5013508;28;20080;-76
2022/11/25 00:29:54;;;;;;;23.65;11.05;;;;;;;-0.08;100.00;98748.44;5013711;28;20080;-76
2022/11/25 00:32:19;;;;;;;28.80;11.77;;;;;;;-0.07;100.00;98744.81;5014029;28;20029;-76
2022/11/25 00:34:44;;;;;;;22.38;10.43;;;;;;;-0.19;100.00;98731.75;5009518;28;20030;-76
2022/11/25 00:37:10;;;;;;;19.67;10.75;;;;;;;-0.03;100.00;98766.63;5012155;28;20037;-79
2022/11/25 00:39:35;;;;;;;20.65;10.95;;;;;;;-0.13;100.00;98763.09;5012620;28;20084;-76
2022/11/25 00:44:44;;;;;;;19.23;9.95;;;;;;;-0.27;100.00;98754.53;5015453;28;20060;-76
2022/11/25 00:47:15;;;;;;;20.02;9.38;;;;;;;-0.19;100.00;98766.31;5014920;28;20037;-76
2022/11/25 00:49:46;;;;;;;21.40;10.00;;;;;;;-0.31;100.00;98761.13;5005644;28;20096;-76
2022/11/25 00:52:14;;;;;;;19.02;9.75;;;;;;;-0.15;100.00;98773.91;5004981;28;20122;-76
2022/11/25 00:54:40;;;;;;;18.07;9.20;;;;;;;-0.30;100.00;98773.44;5020252;28;20029;-77
2022/11/25 00:57:05;;;;;;;18.80;9.05;;;;;;;-0.35;100.00;98764.19;5017268;28;20320;-76
2022/11/25 00:59:30;;;;;;;18.40;9.98;;;;;;;-0.53;100.00;98737.41;5018971;28;20037;-76
2022/11/25 01:01:55;;;;;;;18.00;8.82;;;;;;;-0.46;100.00;98759.81;5018459;28;20030;-76
2022/11/25 01:04:21;;;;;;;25.02;9.45;;;;;;;-0.28;100.00;98760.84;5016568;28;20025;-76
2022/11/25 01:06:46;;;;;;;22.52;8.95;;;;;;;-0.16;100.00;98774.03;5015756;28;20022;-76
2022/11/25 01:09:12;;;;;;;18.60;9.27;;;;;;;-0.05;100.00;98774.75;5015501;28;20029;-76
2022/11/25 01:11:38;;;;;;;20.48;8.70;;;;;;;-0.08;100.00;98774.19;5015986;28;20388;-76
2022/11/25 01:14:03;;;;;;;15.55;7.45;;;;;;;0.25;100.00;98785.44;5004286;28;20026;-76
2022/11/25 01:16:30;;;;;;;19.15;7.93;;;;;;;0.14;100.00;98773.94;5013328;28;20033;-76
2022/11/25 01:18:56;;;;;;;14.25;7.20;;;;;;;0.20;100.00;98785.84;4996989;28;20460;-76
2022/11/25 01:21:24;;;;;;;19.63;7.20;;;;;;;0.19;100.00;98790.34;5001538;28;20061;-76
2022/11/25 01:23:50;;;;;;;18.13;7.60;;;;;;;0.06;100.00;98760.50;5011252;28;20045;-76
2022/11/25 01:26:19;;;;;;;16.67;7.10;;;;;;;0.28;100.00;98777.19;5013466;28;20030;-78
2022/11/25 01:28:44;;;;;;;22.25;8.65;;;;;;;0.28;100.00;98780.69;5006098;28;20026;-77
2022/11/25 01:31:21;;;;;;;21.92;7.45;;;;;;;0.28;100.00;98777.19;5013376;28;20036;-77
2022/11/25 01:33:51;;;;;;;14.98;7.05;;;;;;;0.35;100.00;98765.84;5014386;28;20428;-76
2022/11/25 01:36:17;;;;;;;18.27;6.93;;;;;;;0.36;100.00;98772.84;5007548;28;20030;-76
2022/11/25 01:38:44;;;;;;;20.38;7.82;;;;;;;0.08;100.00;98728.44;5009189;28;20060;-77
2022/11/25 01:41:14;;;;;;;16.38;7.88;;;;;;;-0.02;100.00;98715.16;5012915;28;20130;-76
2022/11/25 01:43:40;;;;;;;16.67;7.55;;;;;;;0.19;100.00;98761.06;5012653;28;20038;-76
2022/11/25 01:46:17;;;;;;;19.48;6.82;;;;;;;0.22;100.00;98773.25;5013457;28;20087;-76
2022/11/25 01:48:58;;;;;;;17.92;8.95;;;;;;;0.27;100.00;98770.19;5012445;28;20040;-77
2022/11/25 01:51:40;;;;;;;16.55;6.30;;;;;;;0.22;100.00;98779.41;5012734;28;20029;-76
2022/11/25 01:54:10;;;;;;;8.57;5.45;;;;;;;0.08;100.00;98768.31;5011369;28;20037;-76
2022/11/25 01:56:42;;;;;;;16.70;6.35;;;;;;;0.15;100.00;98774.78;5010551;28;20034;-76
2022/11/25 01:59:08;;;;;;;13.60;5.82;;;;;;;0.13;100.00;98766.97;5013325;28;20037;-77
2022/11/25 02:01:33;;;;;;;14.00;6.70;;;;;;;0.13;100.00;98766.97;5012369;28;20037;-76
2022/11/25 02:04:00;;;;;;;17.35;6.45;;;;;;;0.28;100.00;98764.72;5013271;28;20034;-76
2022/11/25 02:06:36;;;;;;;12.98;6.65;;;;;;;0.34;100.00;98747.34;5011780;28;20034;-76
2022/11/25 02:09:05;;;;;;;11.45;6.13;;;;;;;0.40;100.00;98754.78;5004871;28;20030;-76
2022/11/25 02:11:32;;;;;;;12.02;6.43;;;;;;;0.55;100.00;98779.16;5013539;28;20034;-77
2022/11/25 02:13:59;;;;;;;15.27;6.70;;;;;;;0.54;100.00;98765.00;5009857;28;20026;-76
2022/11/25 02:16:24;;;;;;;10.13;5.32;;;;;;;0.64;100.00;98770.34;5011488;28;20041;-77
2022/11/25 02:18:50;;;;;;;14.40;6.05;;;;;;;0.68;100.00;98781.53;5012053;28;20022;-76
2022/11/25 02:21:23;;;;;;;12.30;5.78;;;;;;;0.55;100.00;98753.41;5012910;28;20036;-76
2022/11/25 02:24:02;;;;;;;11.20;6.03;;;;;;;0.60;100.00;98771.59;5013005;28;20061;-76
2022/11/25 02:26:27;;;;;;;10.93;4.10;;;;;;;0.54;100.00;98772.16;5015541;28;20030;-76
2022/11/25 02:28:53;;;;;;;11.32;5.22;;;;;;;0.59;100.00;98768.09;5011294;28;20041;-76
2022/11/25 02:31:20;;;;;;;10.50;4.72;;;;;;;0.81;100.00;98779.41;5011624;28;20018;-76
2022/11/25 02:33:45;;;;;;;10.75;5.20;;;;;;;0.85;100.00;98776.34;5011936;28;20018;-76
2022/11/25 02:36:18;;;;;;;16.08;4.72;;;;;;;0.73;100.00;98768.63;5010795;28;20094;-76
2022/11/25 02:38:53;;;;;;;11.85;4.57;;;;;;;0.52;100.00;98750.97;5012216;28;20030;-76
2022/11/25 02:41:27;;;;;;;11.35;5.07;;;;;;;0.72;100.00;98778.44;5000917;28;20017;-76
2022/11/25 02:43:53;;;;;;;15.25;5.13;;;;;;;0.63;100.00;98768.66;5011537;28;20021;-76
2022/11/25 02:46:22;;;;;;;14.25;6.35;;;;;;;0.74;100.00;98781.81;5011286;28;20433;-76
2022/11/25 02:48:47;;;;;;;13.15;5.65;;;;;;;0.49;100.00;98758.44;5011151;28;20024;-76
2022/11/25 02:51:16;;;;;;;19.42;5.13;;;;;;;0.63;100.00;98800.59;5011869;28;20030;-76
2022/11/25 02:53:41;;;;;;;13.60;5.65;;;;;;;0.58;100.00;98785.06;5012655;28;20022;-77
2022/11/25 02:56:08;;;;;;;16.52;5.85;;;;;;;0.65;100.00;98787.97;5009928;28;20033;-77
2022/11/25 02:58:33;;;;;;;14.43;7.10;;;;;;;0.61;100.00;98782.09;5006185;28;20014;-77
2022/11/25 03:00:58;;;;;;;20.23;8.35;;;;;;;0.49;100.00;98774.41;5010932;28;20495;-76
2022/11/25 03:03:24;;;;;;;18.38;7.50;;;;;;;0.54;100.00;98780.97;5012969;28;20033;-77
2022/11/25 03:05:49;;;;;;;12.98;6.72;;;;;;;0.39;100.00;98755.75;5013817;28;20109;-76
2022/11/25 03:08:15;;;;;;;17.55;7.38;;;;;;;0.34;100.00;98758.84;5013268;28;20028;-76
2022/11/25 03:10:40;;;;;;;17.63;6.97;;;;;;;0.47;100.00;98755.06;5001036;28;20026;-76
2022/11/25 03:13:07;;;;;;;13.55;6.88;;;;;;;0.36;100.00;98740.06;4997115;28;20084;-76
2022/11/25 03:15:33;;;;;;;14.70;7.68;;;;;;;0.41;100.00;98744.00;5009041;28;20380;-76
2022/11/25 03:17:58;;;;;;;17.58;7.63;;;;;;;0.37;100.00;98736.44;5013974;28;20431;-76
2022/11/25 03:20:24;;;;;;;12.77;7.07;;;;;;;0.32;100.00;98736.88;5014361;28;20018;-76
2022/11/25 03:22:49;;;;;;;25.15;8.20;;;;;;;0.40;100.00;98747.66;5015577;28;20236;-76
2022/11/25 03:25:15;;;;;;;17.88;7.25;;;;;;;0.30;100.00;98730.00;5020736;28;20022;-76
2022/11/25 03:27:41;;;;;;;12.48;5.68;;;;;;;0.43;100.00;98746.53;5013087;28;20365;-76
2022/11/25 03:30:09;;;;;;;16.85;5.55;;;;;;;0.34;100.00;98720.75;5014678;28;20018;-76
2022/11/25 03:32:35;;;;;;;8.82;4.90;;;;;;;0.43;100.00;98735.88;5016210;28;20018;-76
2022/11/25 03:35:00;;;;;;;21.02;5.85;;;;;;;0.45;100.00;98747.22;5014098;28;20415;-76
2022/11/25 03:37:26;;;;;;;14.20;5.97;;;;;;;0.39;100.00;98723.81;5014347;28;20053;-76
2022/11/25 03:39:51;;;;;;;15.60;6.20;;;;;;;0.49;100.00;98727.31;5014882;28;20543;-76
2022/11/25 03:42:16;;;;;;;20.98;6.70;;;;;;;0.57;100.00;98739.91;5016278;28;20107;-76
2022/11/25 03:44:41;;;;;;;14.73;7.15;;;;;;;0.60;100.00;98743.16;5014328;28;20032;-76
2022/11/25 03:47:07;;;;;;;21.55;8.45;;;;;;;0.48;100.00;98725.66;5013149;28;20036;-76
2022/11/25 03:49:32;;;;;;;22.98;8.63;;;;;;;0.46;100.00;98735.59;5014075;28;20026;-76
2022/11/25 03:51:58;;;;;;;17.73;8.10;;;;;;;0.36;100.00;98708.13;5015134;28;20538;-76
2022/11/25 03:54:23;;;;;;;22.73;9.32;;;;;;;0.47;100.00;98739.91;5014802;28;20034;-76
2022/11/25 03:56:48;;;;;;;19.73;7.95;;;;;;;0.36;100.00;98724.94;5015955;28;20080;-76
2022/11/25 03:59:14;;;;;;;17.02;8.43;;;;;;;0.38;100.00;98730.13;5012823;28;20022;-76
2022/11/25 04:01:39;;;;;;;22.52;8.93;;;;;;;0.27;100.00;98699.19;5015107;28;20104;-76
2022/11/25 04:04:05;;;;;;;18.02;7.75;;;;;;;0.53;100.00;98742.03;5013904;28;20064;-76
2022/11/25 04:06:31;;;;;;;16.33;7.25;;;;;;;0.42;100.00;98723.56;5015747;28;20441;-76
2022/11/25 04:08:56;;;;;;;15.98;7.20;;;;;;;0.34;100.00;98707.44;5013741;28;20040;-76
2022/11/25 04:12:45;;;;;;;22.23;8.27;;;;;;;0.51;100.00;98741.34;5014262;28;20058;-77
2022/11/25 04:14:07;;;;;;;19.23;7.25;;;;;;;0.31;100.00;98721.84;5015291;28;20021;-76
2022/11/25 04:16:32;;;;;;;14.98;6.68;;;;;;;0.06;100.00;98691.34;5014126;28;20089;-77
2022/11/25 04:18:58;;;;;;;12.90;7.18;;;;;;;0.16;100.00;98728.59;5005171;28;20487;-76
2022/11/25 04:21:23;;;;;;;13.95;6.70;;;;;;;0.19;100.00;98729.16;5013574;28;20030;-77
2022/11/25 04:23:48;;;;;;;14.80;6.97;;;;;;;0.17;100.00;98716.97;5015737;28;20373;-76
2022/11/25 04:26:14;;;;;;;17.08;7.55;;;;;;;0.07;100.00;98703.66;5015440;28;20032;-76
2022/11/25 04:28:39;;;;;;;13.77;6.88;;;;;;;0.27;100.00;98719.63;5012027;28;20030;-77
2022/11/25 04:31:06;;;;;;;14.77;6.30;;;;;;;0.40;100.00;98741.50;5013065;28;20112;-77
2022/11/25 04:33:32;;;;;;;17.13;6.60;;;;;;;0.21;100.00;98707.75;5014162;28;20022;-77
2022/11/25 04:35:57;;;;;;;16.02;6.50;;;;;;;0.23;100.00;98708.41;5013984;28;20030;-77
2022/11/25 04:38:22;;;;;;;13.75;5.60;;;;;;;0.37;100.00;98723.16;5012470;28;20555;-77
2022/11/25 04:40:47;;;;;;;10.13;5.53;;;;;;;0.29;100.00;98699.03;5011241;28;20033;-78
2022/11/25 04:43:13;;;;;;;14.63;5.25;;;;;;;0.59;100.00;98738.81;5013061;28;20045;-78
2022/11/25 04:45:38;;;;;;;11.13;5.53;;;;;;;0.64;100.00;98727.72;5013719;28;20044;-77
2022/11/25 04:48:04;;;;;;;14.38;5.43;;;;;;;0.62;100.00;98716.38;5013233;28;20038;-77
2022/11/25 04:50:29;;;;;;;15.65;6.60;;;;;;;0.65;100.00;98729.41;5012373;28;20026;-78
2022/11/25 04:52:54;;;;;;;14.07;6.28;;;;;;;0.68;100.00;98734.44;5021472;28;20017;-77
2022/11/25 04:55:19;;;;;;;19.30;7.10;;;;;;;0.61;100.00;98722.69;5014745;28;20025;-78
2022/11/25 04:57:45;;;;;;;16.23;7.40;;;;;;;0.59;100.00;98722.81;5010119;28;20026;-78
2022/11/25 05:00:11;;;;;;;16.75;7.20;;;;;;;0.56;100.00;98715.13;5009679;28;20105;-76
2022/11/25 05:02:37;;;;;;;16.05;7.03;;;;;;;0.58;100.00;98721.16;5006601;28;20068;-77
2022/11/25 05:05:03;;;;;;;17.20;7.10;;;;;;;0.55;100.00;98723.25;5008421;28;20029;-77
2022/11/25 05:07:28;;;;;;;13.40;6.93;;;;;;;0.37;100.00;98688.53;5011710;28;20029;-77
2022/11/25 05:09:54;;;;;;;15.50;6.30;;;;;;;0.56;100.00;98728.44;5024672;28;20045;-77
2022/11/25 05:12:22;;;;;;;18.65;6.13;;;;;;;0.51;100.00;98729.84;5031867;28;20085;-78
2022/11/25 05:14:48;;;;;;;11.80;6.00;;;;;;;0.56;100.00;98731.09;5037540;28;20542;-77
2022/11/25 05:17:19;;;;;;;12.18;5.47;;;;;;;0.42;100.00;98710.25;5024304;28;20026;-77
2022/11/25 05:19:45;;;;;;;14.73;5.32;;;;;;;0.73;100.00;98748.16;5004079;28;20022;-76
2022/11/25 05:22:15;;;;;;;13.32;5.95;;;;;;;0.62;100.00;98743.84;5007404;28;20535;-77
2022/11/25 05:24:40;;;;;;;14.13;6.43;;;;;;;0.48;100.00;98725.66;5012040;28;20028;-76
2022/11/25 05:27:06;;;;;;;11.93;5.43;;;;;;;0.58;100.00;98737.13;5011168;28;20113;-77
2022/11/25 05:29:31;;;;;;;9.07;5.32;;;;;;;0.60;100.00;98745.81;5011682;28;20027;-77
2022/11/25 05:31:56;;;;;;;14.80;5.82;;;;;;;0.60;100.00;98745.81;5013644;28;20018;-77
2022/11/25 05:34:22;;;;;;;12.60;7.10;;;;;;;0.69;100.00;98753.94;5011766;28;20029;-77
2022/11/25 05:36:47;;;;;;;20.50;6.55;;;;;;;0.58;100.00;98750.44;5013066;28;20022;-77
2022/11/25 05:39:13;;;;;;;19.15;6.22;;;;;;;0.44;100.00;98727.72;5010795;28;20022;-77
2022/11/25 05:41:38;;;;;;;12.85;5.97;;;;;;;0.60;100.00;98758.28;5014108;28;20025;-77
2022/11/25 05:44:04;;;;;;;12.40;5.82;;;;;;;0.59;100.00;98753.94;5015568;28;20423;-77
2022/11/25 05:46:30;;;;;;;10.35;5.65;;;;;;;0.48;100.00;98730.97;5010229;28;20033;-76
2022/11/25 05:48:56;;;;;;;11.25;4.88;;;;;;;0.53;100.00;98749.19;5009126;28;20056;-76
2022/11/25 05:51:22;;;;;;;9.57;4.43;;;;;;;0.50;100.00;98758.31;5013470;28;20449;-77
2022/11/25 05:53:47;;;;;;;9.40;4.40;;;;;;;0.47;100.00;98761.22;5012049;28;20068;-77
2022/11/25 05:56:12;;;;;;;10.02;4.80;;;;;;;0.55;100.00;98781.81;5008548;28;21725;-76
2022/11/25 05:58:38;;;;;;;8.20;3.63;;;;;;;0.53;100.00;98783.78;5005888;28;20041;-76
2022/11/25 06:01:08;;;;;;;11.95;3.55;;;;;;;0.39;100.00;98779.72;5010583;28;20038;-76
2022/11/25 06:03:34;;;;;;;9.38;3.83;;;;;;;0.55;100.00;98795.13;5004885;28;20108;-77
2022/11/25 06:05:59;;;;;;;8.63;3.78;;;;;;;0.38;100.00;98762.91;5009812;28;20548;-74
2022/11/25 06:08:26;;;;;;;14.07;4.32;;;;;;;0.67;100.00;98793.16;5009210;28;20184;-75
2022/11/25 06:10:51;;;;;;;10.25;4.10;;;;;;;0.66;100.00;98776.38;5015027;28;20480;-79
2022/11/25 06:13:17;;;;;;;10.88;4.88;;;;;;;0.77;100.00;98794.84;5013173;28;20022;-79
2022/11/25 06:15:43;;;;;;;12.35;4.00;;;;;;;0.53;100.00;98763.34;5011493;28;20021;-79
2022/11/25 06:18:10;;;;;;;17.92;4.50;;;;;;;0.57;100.00;98778.03;5011528;28;20025;-79
2022/11/25 06:20:36;;;;;;;13.18;5.63;;;;;;;0.63;100.00;98774.81;5011841;28;20030;-79
2022/11/25 06:23:02;;;;;;;12.15;4.47;;;;;;;0.77;100.00;98789.53;5012613;28;20029;-79
2022/11/25 06:25:27;;;;;;;10.40;4.00;;;;;;;0.78;100.00;98788.53;5010941;28;20074;-79
2022/11/25 06:27:53;;;;;;;15.25;6.03;;;;;;;0.76;100.00;98789.66;5003695;28;20433;-79
2022/11/25 06:30:19;;;;;;;16.40;5.47;;;;;;;0.61;100.00;98783.94;5009059;28;20022;-76
2022/11/25 06:32:44;;;;;;;16.05;4.68;;;;;;;0.74;100.00;98802.28;5007853;28;20046;-75
2022/11/25 06:35:10;;;;;;;13.98;4.80;;;;;;;0.77;100.00;98799.34;5012016;28;20029;-75
2022/11/25 06:37:35;;;;;;;9.57;4.82;;;;;;;0.79;100.00;98790.22;5011466;28;20134;-73
2022/11/25 06:40:00;;;;;;;14.77;4.78;;;;;;;0.89;100.00;98795.53;5023267;28;20029;-73
2022/11/25 06:42:26;;;;;;;15.77;4.65;;;;;;;1.03;100.00;98808.41;5009315;28;20032;-73
2022/11/25 06:44:51;;;;;;;9.77;4.68;;;;;;;1.04;100.00;98804.75;5007529;28;20061;-72
2022/11/25 06:47:17;;;;;;;7.60;4.72;;;;;;;1.04;100.00;98804.75;5007176;28;20052;-73
2022/11/25 06:49:42;;;;;;;14.95;5.18;;;;;;;0.73;100.00;98771.28;5001589;28;20105;-74
2022/11/25 06:52:07;;;;;;;20.23;6.72;;;;;;;0.76;100.00;98801.16;5010343;28;20101;-73
2022/11/25 06:54:33;;;;;;;16.63;6.68;;;;;;;0.67;100.00;98802.00;5013480;28;20022;-73
2022/11/25 06:56:58;;;;;;;16.02;5.90;;;;;;;0.75;100.00;98811.94;5005938;28;20632;-73
2022/11/25 06:59:24;;;;;;;14.48;5.53;;;;;;;0.67;100.00;98807.31;5003583;28;20056;-73
2022/11/25 07:01:49;;;;;;;14.05;6.65;;;;;;;0.75;100.00;98810.13;5010483;28;20116;-73
2022/11/25 07:04:14;;;;;;;14.05;7.20;;;;;;;0.73;100.00;98814.72;5018447;28;20053;-73
2022/11/25 07:06:40;;;;;;;18.55;6.85;;;;;;;0.72;100.00;98810.41;5011415;28;20100;-74
2022/11/25 07:09:05;;;;;;;14.10;6.50;;;;;;;0.84;100.00;98835.91;5003885;28;20035;-73
2022/11/25 07:11:33;;;;;;;11.90;5.53;;;;;;;0.71;100.00;98813.19;5001854;28;20097;-74
2022/11/25 07:14:02;;;;;;;11.38;4.85;;;;;;;0.97;100.00;98822.31;5002191;28;20052;-76
2022/11/25 07:16:27;;;;;;;10.40;4.32;;;;;;;1.06;100.00;98808.13;5012395;28;20064;-73
2022/11/25 07:18:53;;;;;;;12.18;4.75;;;;;;;1.20;100.00;98822.81;5009389;28;20858;-74
2022/11/25 07:21:21;;;;;;;12.13;5.47;;;;;;;1.29;100.00;98835.28;5008987;28;20030;-74
2022/11/25 07:23:46;;;;;;;13.00;4.32;;;;;;;1.32;100.00;98818.19;5011713;28;20034;-75
2022/11/25 07:26:18;;;;;;;20.05;4.95;;;;;;;1.48;100.00;98844.22;5010214;28;20045;-74
2022/11/25 07:28:44;;;;;;;11.18;4.45;;;;;;;1.54;100.00;98820.47;5010500;28;20590;-75
2022/11/25 07:31:20;;;;;;;14.27;4.28;;;;;;;1.79;100.00;98841.31;5010463;28;20144;-75
2022/11/25 07:33:46;;;;;;;20.27;4.55;;;;;;;2.01;100.00;98840.09;5008822;28;20025;-75
2022/11/25 07:36:13;;;;;;;13.25;4.57;;;;;;;2.32;100.00;98853.97;5005695;28;20026;-75
2022/11/25 07:38:40;;;;;;;13.30;3.88;;;;;;;2.69;100.00;98832.50;5007453;28;20048;-79
2022/11/25 07:41:09;;;;;;;11.80;3.85;;;;;;;3.12;100.00;98844.25;5010009;28;20030;-73
2022/11/25 07:43:35;;;;;;;9.70;3.50;;;;;;;3.26;100.00;98813.44;5006940;28;20037;-76
2022/11/25 07:46:17;;;;;;;8.40;3.42;;;;;;;3.84;100.00;98833.34;5009174;28;20042;-76
2022/11/25 07:48:44;;;;;;;6.25;2.83;;;;;;;4.28;100.00;98827.84;5008809;28;20017;-75
2022/11/25 07:51:21;;;;;;;7.75;2.60;;;;;;;4.54;100.00;98819.69;5011849;28;20384;-75
2022/11/25 07:53:48;;;;;;;7.05;2.42;;;;;;;4.98;100.00;98825.63;5014210;28;20045;-73
2022/11/25 07:56:14;;;;;;;9.18;2.38;;;;;;;5.08;100.00;98805.81;5016090;28;20064;-74
2022/11/25 07:58:39;;;;;;;7.95;2.90;;;;;;;5.32;100.00;98794.22;5018113;28;20036;-74
2022/11/25 08:01:06;;;;;;;10.43;2.45;;;;;;;5.34;100.00;98786.84;5012680;28;20030;-71
2022/11/25 08:03:33;;;;;;;5.15;2.60;;;;;;;5.67;100.00;98812.63;5007313;28;20073;-70
2022/11/25 08:06:06;;;;;;;5.15;2.13;;;;;;;5.19;100.00;98810.88;5012814;28;20088;-71
2022/11/25 08:08:32;;;;;;;6.75;2.55;;;;;;;4.78;100.00;98809.00;5012432;28;20099;-76
2022/11/25 08:10:58;;;;;;;6.03;2.20;;;;;;;4.52;100.00;98822.53;5003927;28;20596;-71
2022/11/25 08:13:24;;;;;;;12.65;6.75;;;;;;;4.31;100.00;98806.91;5015641;28;20109;-73
2022/11/25 08:15:49;;;;;;;8.48;2.80;;;;;;;4.21;100.00;98830.31;5001865;28;20470;-72
2022/11/25 08:18:15;;;;;;;11.57;2.65;;;;;;;4.10;100.00;98820.72;5008082;28;20025;-73
2022/11/25 08:20:40;;;;;;;4.47;2.33;;;;;;;4.15;100.00;98850.53;5006664;28;20068;-72
2022/11/25 08:23:06;;;;;;;6.05;2.03;;;;;;;4.20;100.00;98852.75;5006357;28;20037;-72
2022/11/25 08:25:31;;;;;;;8.38;2.33;;;;;;;4.12;100.00;98828.63;5004747;28;20453;-75
2022/11/25 08:28:00;;;;;;;8.07;2.28;;;;;;;4.29;100.00;98856.28;5002337;28;20044;-68
2022/11/25 08:30:25;;;;;;;6.87;2.10;;;;;;;4.36;100.00;98851.97;5007112;28;20034;-69
2022/11/25 08:32:51;;;;;;;7.15;2.40;;;;;;;4.30;100.00;98826.66;5002990;28;20022;-71
2022/11/25 08:35:17;;;;;;;7.82;2.95;;;;;;;4.30;100.00;98831.19;5003769;28;20561;-76
2022/11/25 08:37:43;;;;;;;11.00;3.22;;;;;;;4.22;100.00;98832.00;5005638;28;20030;-76
2022/11/25 08:40:09;;;;;;;10.10;3.80;;;;;;;4.12;100.00;98837.47;5013221;28;20024;-71
2022/11/25 08:42:35;;;;;;;7.40;3.17;;;;;;;4.13;100.00;98831.13;5008978;28;20030;-72
2022/11/25 08:45:01;;;;;;;13.43;3.60;;;;;;;4.16;100.00;98825.44;5006658;28;20031;-73
2022/11/25 08:47:26;;;;;;;10.88;4.28;;;;;;;4.16;100.00;98814.72;5011479;28;20026;-74
2022/11/25 08:49:52;;;;;;;34.80;11.18;;;;;;;4.16;100.00;98803.19;5002727;28;20072;-74
2022/11/25 08:52:18;;;;;;;47.30;16.10;;;;;;;4.14;100.00;98810.56;5007862;28;22861;-77
2022/11/25 08:54:43;;;;;;;48.55;15.07;;;;;;;4.22;100.00;98826.66;5007322;28;20514;-83
2022/11/25 08:57:09;;;;;;;45.95;13.70;;;;;;;4.47;100.00;98846.28;5013213;28;20108;-81
2022/11/25 08:59:34;;;;;;;44.97;13.18;;;;;;;4.77;100.00;98854.75;5016518;28;20060;-80
2022/11/25 09:01:59;;;;;;;19.77;7.00;;;;;;;4.85;100.00;98841.34;5010311;28;20030;-73
2022/11/25 09:04:25;;;;;;;10.45;4.60;;;;;;;5.17;100.00;98853.09;5011417;28;20037;-74
2022/11/25 09:06:50;;;;;;;11.65;4.72;;;;;;;5.49;100.00;98868.34;5009382;28;20053;-74
2022/11/25 09:09:15;;;;;;;7.88;3.50;;;;;;;5.83;100.00;98883.38;5010590;28;20056;-76
2022/11/25 09:11:41;;;;;;;8.93;4.60;;;;;;;6.04;100.00;98853.31;5009802;28;20026;-72
2022/11/25 09:14:06;;;;;;;15.13;5.10;;;;;;;6.13;100.00;98814.66;5003395;28;20042;-71
2022/11/25 09:16:31;;;;;;;13.10;6.22;;;;;;;6.76;100.00;98840.53;5008371;28;20467;-73
2022/11/25 09:18:58;;;;;;;11.10;2.70;;;;;;;7.11;100.00;98840.97;5009027;28;20025;-72
2022/11/25 09:21:24;;;;;;;5.80;3.08;;;;;;;7.41;100.00;98803.34;5007906;28;20030;-72
2022/11/25 09:23:51;;;;;;;6.93;2.90;;;;;;;7.80;100.00;98823.81;5008033;28;20072;-72
2022/11/25 09:26:30;;;;;;;8.25;2.83;;;;;;;7.73;100.00;98833.66;5006257;28;20480;-73
2022/11/25 09:28:55;;;;;;;9.23;3.05;;;;;;;7.57;100.00;98826.59;5000930;28;20026;-71
2022/11/25 09:31:21;;;;;;;18.65;6.28;;;;;;;7.59;100.00;98833.47;5009309;28;20075;-71
2022/11/25 09:33:48;;;;;;;16.95;6.25;;;;;;;7.49;100.00;98826.66;5011863;28;20029;-80
2022/11/25 09:36:15;;;;;;;26.52;7.72;;;;;;;7.25;100.00;98844.72;5009161;28;20026;-75
2022/11/25 09:38:43;;;;;;;19.58;5.90;;;;;;;7.16;100.00;98840.44;5012115;28;20516;-75
2022/11/25 09:48:08;;;;;;;9.02;3.15;;;;;;;6.94;100.00;98860.91;4998966;28;20416;-75
2022/11/25 09:50:52;;;;;;;10.68;3.30;;;;;;;7.02;100.00;98864.41;4997429;28;20030;-74
2022/11/25 09:53:43;;;;;;;6.88;2.88;;;;;;;6.84;100.00;98850.41;5002786;28;20137;-76
2022/11/25 09:56:25;;;;;;;9.50;3.28;;;;;;;6.93;100.00;98870.00;5010701;28;20030;-75
2022/11/25 09:58:58;;;;;;;9.18;3.65;;;;;;;6.75;100.00;98844.22;5002812;28;20034;-73
2022/11/25 10:01:26;;;;;;;21.65;7.10;;;;;;;6.90;100.00;98848.84;5009265;28;20029;-73
2022/11/25 10:04:04;;;;;;;8.30;3.60;;;;;;;6.96;100.00;98838.22;5014186;28;20041;-81
2022/11/25 10:06:34;;;;;;;14.80;3.23;;;;;;;7.24;100.00;98851.13;5013571;28;20029;-81
2022/11/25 10:09:13;;;;;;;8.18;2.78;;;;;;;7.55;100.00;98848.31;5011305;28;20647;-79
2022/11/25 10:12:00;;;;;;;5.05;2.42;;;;;;;7.74;100.00;98843.44;5012906;28;20080;-80
2022/11/25 10:14:34;;;;;;;13.95;2.35;;;;;;;7.71;100.00;98846.50;5005358;28;20030;-81
2022/11/25 10:17:08;;;;;;;5.50;2.60;;;;;;;7.68;100.00;98855.78;5013465;28;20025;-80
2022/11/25 10:19:55;;;;;;;4.72;2.10;;;;;;;7.55;100.00;98831.34;5008891;28;20072;-80
2022/11/25 10:22:31;;;;;;;7.13;2.17;;;;;;;7.51;100.00;98852.38;5014294;28;20022;-80
2022/11/25 10:25:00;;;;;;;6.80;2.38;;;;;;;7.30;100.00;98838.78;5012989;28;20025;-81
2022/11/25 10:27:40;;;;;;;6.63;2.40;;;;;;;7.21;100.00;98838.88;5020481;28;20055;-85
2022/11/25 10:30:19;;;;;;;5.72;2.30;;;;;;;7.27;100.00;98840.00;5016863;28;20390;-87
2022/11/25 10:32:52;;;;;;;8.60;2.47;;;;;;;7.39;100.00;98848.47;5014604;28;20495;-75
2022/11/25 10:35:42;;;;;;;8.80;2.90;;;;;;;7.44;100.00;98851.44;5016025;28;20076;-73
2022/11/25 10:38:15;;;;;;;6.18;3.15;;;;;;;7.40;100.00;98850.16;5016131;28;20068;-73
2022/11/25 10:40:45;;;;;;;7.18;2.80;;;;;;;7.39;100.00;98843.09;5014223;28;20523;-74
2022/11/25 10:43:13;;;;;;;16.58;3.65;;;;;;;7.28;100.00;98851.59;5015313;28;20026;-74
2022/11/25 10:46:06;;;;;;;8.00;3.38;;;;;;;7.34;100.00;98861.66;5014815;28;20056;-74
2022/11/25 10:48:40;;;;;;;6.75;2.50;;;;;;;7.42;100.00;98869.66;5008858;28;20097;-73
2022/11/25 10:51:33;;;;;;;5.97;2.15;;;;;;;7.45;100.00;98870.09;5016448;28;20084;-73
2022/11/25 10:54:16;;;;;;;5.93;2.10;;;;;;;7.44;100.00;98884.59;5012253;28;20030;-76
2022/11/25 10:56:44;;;;;;;6.75;3.33;;;;;;;7.40;100.00;98882.44;5010351;28;20034;-74
2022/11/25 10:59:21;;;;;;;8.23;3.47;;;;;;;7.40;100.00;98887.81;5023810;28;20029;-73
2022/11/25 11:01:46;;;;;;;9.25;3.08;;;;;;;7.39;100.00;98887.00;5009397;28;20105;-72
2022/11/25 11:04:14;;;;;;;5.32;2.10;;;;;;;7.57;100.00;98897.44;5010928;28;20109;-73
2022/11/25 11:06:43;;;;;;;7.10;2.15;;;;;;;7.67;100.00;98894.47;5010407;28;20041;-73
2022/11/25 11:09:39;;;;;;;7.03;2.20;;;;;;;7.88;100.00;98904.53;5009275;28;20033;-72
2022/11/25 11:12:20;;;;;;;4.45;2.22;;;;;;;7.82;100.00;98891.81;5011153;28;20510;-72
2022/11/25 11:14:46;;;;;;;6.80;2.50;;;;;;;7.98;100.00;98905.13;5007764;28;20079;-73
2022/11/25 11:17:44;;;;;;;7.38;2.25;;;;;;;8.11;100.00;98921.47;5007342;28;20026;-74
2022/11/25 11:20:30;;;;;;;10.60;2.83;;;;;;;8.01;100.00;98910.13;5020556;28;20483;-73
2022/11/25 11:23:09;;;;;;;6.15;2.88;;;;;;;7.99;100.00;98919.41;5008126;28;20026;-73
2022/11/25 11:25:37;;;;;;;12.27;5.40;;;;;;;7.88;100.00;98908.06;5008793;28;20261;-71
2022/11/25 11:28:23;;;;;;;7.45;3.75;;;;;;;7.95;100.00;98924.34;5012849;28;20177;-72
2022/11/25 11:31:02;;;;;;;9.23;2.70;;;;;;;7.95;100.00;98929.75;5013105;28;20026;-70
2022/11/25 11:33:46;;;;;;;5.40;2.53;;;;;;;8.01;100.00;98931.69;5014732;28;20014;-72
2022/11/25 11:36:43;;;;;;;6.32;2.22;;;;;;;7.97;100.00;98922.31;5016456;28;20040;-72
2022/11/25 11:39:27;;;;;;;7.93;2.70;;;;;;;8.00;100.00;98948.88;5018577;28;20045;-72
2022/11/25 11:42:29;;;;;;;6.38;2.45;;;;;;;7.84;100.00;98940.97;5016429;28;20056;-71